Time;durP1;ratioP1;P1;durP2;ratioP2;P2;SDS_P1;SDS_P2;PMS_P1;PMS_P2;Temp;Humidity;BMP_temperature;BMP_pressure;BME280_temperature;BME280_humidity;BME280_pressure;Samples;Min_cycle;Max_cycle;Signal;HPM_P1;HPM_P2
2024/02/04 00:00:05;;;;;;;7.85;7.18;;;;;;;;;;5037786;28;20386;-79
2024/02/04 00:02:31;;;;;;;7.82;7.13;;;;;;;;;;5039500;28;20490;-79
2024/02/04 00:04:57;;;;;;;7.68;6.97;;;;;;;;;;5038604;28;20987;-79
2024/02/04 00:07:23;;;;;;;7.55;6.85;;;;;;;;;;5039398;28;20398;-79
2024/02/04 00:09:49;;;;;;;6.60;6.00;;;;;;;;;;5038566;28;20418;-80
2024/02/04 00:12:15;;;;;;;6.55;6.03;;;;;;;;;;5039225;28;20375;-80
2024/02/04 00:14:41;;;;;;;6.78;5.80;;;;;;;;;;5039652;28;20386;-80
2024/02/04 00:17:07;;;;;;;6.70;6.20;;;;;;;;;;5038615;28;20856;-80
2024/02/04 00:19:33;;;;;;;6.00;5.50;;;;;;;;;;5037993;28;20383;-80
2024/02/04 00:21:59;;;;;;;5.82;5.32;;;;;;;;;;5038371;28;20393;-80
2024/02/04 00:24:25;;;;;;;5.15;4.75;;;;;;;;;;5038535;28;20380;-80
2024/02/04 00:26:51;;;;;;;5.25;4.75;;;;;;;;;;5039167;28;20379;-80
2024/02/04 00:29:17;;;;;;;5.25;4.75;;;;;;;;;;5038068;28;20510;-80
2024/02/04 00:31:43;;;;;;;4.80;4.40;;;;;;;;;;5038253;28;20792;-80
2024/02/04 00:34:09;;;;;;;4.60;4.30;;;;;;;;;;5038602;28;20432;-79
2024/02/04 00:36:35;;;;;;;5.45;4.80;;;;;;;;;;5038353;28;20424;-80
2024/02/04 00:39:01;;;;;;;5.03;4.63;;;;;;;;;;5038471;28;20394;-80
2024/02/04 00:41:27;;;;;;;5.47;5.07;;;;;;;;;;5038429;28;20379;-79
2024/02/04 00:43:53;;;;;;;5.82;5.32;;;;;;;;;;5038703;28;20467;-80
2024/02/04 00:46:19;;;;;;;6.30;5.80;;;;;;;;;;5038522;28;20387;-79
2024/02/04 00:48:45;;;;;;;6.57;5.97;;;;;;;;;;5037439;28;20444;-80
2024/02/04 00:51:13;;;;;;;7.15;6.55;;;;;;;;;;5037726;28;20383;-80
2024/02/04 00:53:39;;;;;;;7.15;6.45;;;;;;;;;;5037876;28;20635;-80
2024/02/04 00:56:05;;;;;;;7.03;6.32;;;;;;;;;;5038486;28;20714;-80
2024/02/04 00:58:31;;;;;;;5.72;5.22;;;;;;;;;;5037958;28;20391;-80
2024/02/04 01:00:57;;;;;;;5.18;4.70;;;;;;;;;;5037930;28;20384;-80
2024/02/04 01:03:23;;;;;;;4.70;4.30;;;;;;;;;;5037427;28;20414;-80
2024/02/04 01:05:49;;;;;;;3.92;3.63;;;;;;;;;;5037906;28;20758;-80
2024/02/04 01:08:15;;;;;;;3.90;3.60;;;;;;;;;;5037745;28;20386;-80
2024/02/04 01:10:41;;;;;;;3.92;3.63;;;;;;;;;;5038225;28;20406;-80
2024/02/04 01:13:07;;;;;;;3.83;3.53;;;;;;;;;;5037081;28;20430;-80
2024/02/04 01:15:33;;;;;;;4.53;4.13;;;;;;;;;;5037641;28;20844;-80
2024/02/04 01:18:00;;;;;;;4.00;3.67;;;;;;;;;;5037671;28;20383;-80
2024/02/04 01:20:27;;;;;;;3.53;3.23;;;;;;;;;;5038230;28;20394;-79
2024/02/04 01:22:53;;;;;;;3.10;2.90;;;;;;;;;;5037991;28;20422;-80
2024/02/04 01:25:19;;;;;;;3.00;2.75;;;;;;;;;;5037880;28;20386;-79
2024/02/04 01:27:45;;;;;;;3.20;2.97;;;;;;;;;;5038118;28;20387;-80
2024/02/04 01:30:11;;;;;;;2.93;2.73;;;;;;;;;;5037641;28;20411;-80
2024/02/04 01:32:37;;;;;;;2.60;2.40;;;;;;;;;;5038155;28;20442;-80
2024/02/04 01:35:03;;;;;;;2.95;2.75;;;;;;;;;;5038017;28;20391;-80
2024/02/04 01:37:29;;;;;;;3.15;2.95;;;;;;;;;;5037788;28;20791;-80
2024/02/04 01:39:55;;;;;;;3.50;3.20;;;;;;;;;;5037466;28;20387;-80
2024/02/04 01:42:21;;;;;;;3.20;3.00;;;;;;;;;;5037450;28;20379;-79
2024/02/04 01:44:47;;;;;;;3.22;3.03;;;;;;;;;;5036723;28;20445;-80
2024/02/04 01:47:14;;;;;;;3.90;3.60;;;;;;;;;;5037018;28;20395;-80
2024/02/04 01:49:40;;;;;;;3.30;3.00;;;;;;;;;;5036823;28;20399;-80
2024/02/04 01:52:07;;;;;;;2.97;2.78;;;;;;;;;;5037258;28;20383;-80
2024/02/04 01:54:33;;;;;;;2.90;2.70;;;;;;;;;;5036963;28;20406;-80
2024/02/04 01:57:03;;;;;;;3.60;3.30;;;;;;;;;;5036917;28;20387;-80
2024/02/04 01:59:30;;;;;;;3.25;3.05;;;;;;;;;;5037378;28;20466;-80
2024/02/04 02:02:03;;;;;;;3.22;3.03;;;;;;;;;;5036864;28;20387;-80
2024/02/04 02:04:29;;;;;;;3.05;2.85;;;;;;;;;;5036737;28;20849;-80
2024/02/04 02:06:56;;;;;;;2.93;2.73;;;;;;;;;;5036984;28;20394;-80
2024/02/04 02:09:22;;;;;;;3.10;2.75;;;;;;;;;;5036899;28;20403;-80
2024/02/04 02:11:50;;;;;;;3.60;3.30;;;;;;;;;;5036790;28;20395;-80
2024/02/04 02:14:19;;;;;;;3.40;3.10;;;;;;;;;;5036812;28;20411;-79
2024/02/04 02:16:46;;;;;;;3.60;3.30;;;;;;;;;;5036446;28;20414;-79
2024/02/04 02:19:15;;;;;;;3.80;3.50;;;;;;;;;;5036932;28;20407;-79
2024/02/04 02:21:46;;;;;;;3.95;3.65;;;;;;;;;;5036141;28;20379;-80
2024/02/04 02:24:24;;;;;;;3.63;3.33;;;;;;;;;;5035503;28;20398;-80
2024/02/04 02:26:51;;;;;;;3.90;3.60;;;;;;;;;;5035790;28;20394;-79
2024/02/04 02:29:17;;;;;;;4.25;3.95;;;;;;;;;;5036040;28;20836;-79
2024/02/04 02:31:43;;;;;;;3.95;3.65;;;;;;;;;;5036198;28;20474;-80
2024/02/04 02:34:10;;;;;;;4.30;3.90;;;;;;;;;;5036497;28;20923;-79
2024/02/04 02:36:59;;;;;;;3.78;3.47;;;;;;;;;;5036310;28;20371;-80
2024/02/04 02:39:27;;;;;;;3.57;3.27;;;;;;;;;;5028906;28;20395;-80
2024/02/04 02:41:56;;;;;;;3.03;2.83;;;;;;;;;;5035948;28;20402;-80
2024/02/04 02:44:22;;;;;;;3.17;2.87;;;;;;;;;;5035993;28;20476;-80
2024/02/04 02:46:48;;;;;;;3.03;2.83;;;;;;;;;;5035396;28;20395;-80
2024/02/04 02:49:15;;;;;;;2.50;2.30;;;;;;;;;;5035750;28;20399;-80
2024/02/04 02:51:41;;;;;;;2.65;2.45;;;;;;;;;;5035063;28;20399;-80
2024/02/04 02:54:07;;;;;;;2.60;2.40;;;;;;;;;;5035151;28;20385;-80
2024/02/04 02:56:33;;;;;;;2.75;2.55;;;;;;;;;;5035328;28;20861;-80
2024/02/04 02:58:59;;;;;;;2.38;2.10;;;;;;;;;;5035710;28;20399;-80
2024/02/04 03:01:24;;;;;;;2.10;2.00;;;;;;;;;;5035823;28;20395;-80
2024/02/04 03:03:50;;;;;;;2.93;2.53;;;;;;;;;;5035195;28;20411;-80
2024/02/04 03:06:16;;;;;;;3.50;3.22;;;;;;;;;;5035908;28;20425;-80
2024/02/04 03:08:42;;;;;;;3.00;2.80;;;;;;;;;;5035484;28;20892;-80
2024/02/04 03:11:08;;;;;;;3.08;2.88;;;;;;;;;;5035521;28;20387;-80
2024/02/04 03:13:34;;;;;;;3.83;2.95;;;;;;;;;;5035865;28;20450;-80
2024/02/04 03:16:01;;;;;;;2.78;2.58;;;;;;;;;;5035942;28;20379;-80
2024/02/04 03:18:27;;;;;;;2.83;2.63;;;;;;;;;;5035332;28;20478;-80
2024/02/04 03:20:53;;;;;;;2.60;2.40;;;;;;;;;;5035617;28;20427;-80
2024/02/04 03:23:19;;;;;;;2.60;2.40;;;;;;;;;;5035063;28;20388;-80
2024/02/04 03:25:45;;;;;;;2.77;2.57;;;;;;;;;;5035753;28;20394;-80
2024/02/04 03:28:11;;;;;;;2.40;2.20;;;;;;;;;;5034962;28;20383;-80
2024/02/04 03:30:37;;;;;;;2.60;2.40;;;;;;;;;;5035376;28;20414;-79
2024/02/04 03:33:03;;;;;;;2.70;2.50;;;;;;;;;;5034781;28;20733;-80
2024/02/04 03:35:29;;;;;;;4.20;2.75;;;;;;;;;;5036371;28;20864;-80
2024/02/04 03:37:55;;;;;;;3.07;2.87;;;;;;;;;;5038486;28;20375;-80
2024/02/04 03:40:24;;;;;;;2.92;2.72;;;;;;;;;;5038203;28;20382;-80
2024/02/04 03:42:50;;;;;;;2.85;2.65;;;;;;;;;;5038304;28;20391;-80
2024/02/04 03:45:16;;;;;;;2.47;2.28;;;;;;;;;;5038206;28;20686;-80
2024/02/04 03:47:42;;;;;;;2.25;2.05;;;;;;;;;;5038469;28;20383;-80
2024/02/04 03:50:08;;;;;;;2.67;2.28;;;;;;;;;;5038551;28;20409;-80
2024/02/04 03:52:34;;;;;;;2.67;2.47;;;;;;;;;;5038803;28;20846;-80
2024/02/04 03:55:00;;;;;;;2.30;2.20;;;;;;;;;;5037413;28;20394;-80
2024/02/04 03:57:26;;;;;;;2.38;2.17;;;;;;;;;;5037749;28;20614;-80
2024/02/04 03:59:52;;;;;;;2.60;2.40;;;;;;;;;;5039135;28;20839;-80
2024/02/04 04:02:18;;;;;;;2.50;2.30;;;;;;;;;;5039139;28;20513;-80
2024/02/04 04:04:47;;;;;;;2.53;2.22;;;;;;;;;;5036684;28;20494;-79
2024/02/04 04:07:13;;;;;;;2.40;2.20;;;;;;;;;;5038940;28;20415;-79
2024/02/04 04:09:39;;;;;;;2.40;2.20;;;;;;;;;;5037951;28;20469;-80
2024/02/04 04:12:05;;;;;;;2.60;2.40;;;;;;;;;;5038474;28;20383;-80
2024/02/04 04:14:31;;;;;;;2.40;2.20;;;;;;;;;;5038048;28;20421;-80
2024/02/04 04:16:57;;;;;;;2.28;1.88;;;;;;;;;;5038268;28;20422;-80
2024/02/04 04:19:24;;;;;;;2.22;2.03;;;;;;;;;;5038098;28;20477;-80
2024/02/04 04:21:50;;;;;;;1.83;1.73;;;;;;;;;;5038546;28;20473;-80
2024/02/04 04:24:19;;;;;;;2.20;1.90;;;;;;;;;;5038260;28;20387;-80
2024/02/04 04:26:45;;;;;;;3.03;1.67;;;;;;;;;;5038190;28;20390;-80
2024/02/04 04:29:11;;;;;;;2.20;1.75;;;;;;;;;;5038675;28;20410;-80
2024/02/04 04:31:37;;;;;;;3.03;1.50;;;;;;;;;;5038356;28;20401;-80
2024/02/04 04:34:03;;;;;;;2.00;1.50;;;;;;;;;;5037977;28;20384;-80
2024/02/04 04:36:29;;;;;;;1.90;1.80;;;;;;;;;;5038467;28;20458;-80
2024/02/04 04:38:55;;;;;;;2.13;1.70;;;;;;;;;;5038634;28;20737;-80
2024/02/04 04:41:21;;;;;;;1.80;1.70;;;;;;;;;;5037622;28;20418;-79
2024/02/04 04:43:47;;;;;;;2.90;1.83;;;;;;;;;;5038700;28;20386;-80
2024/02/04 04:46:13;;;;;;;2.58;2.00;;;;;;;;;;5039190;28;20542;-79
2024/02/04 04:48:39;;;;;;;1.90;1.60;;;;;;;;;;5038434;28;20490;-80
2024/02/04 04:51:05;;;;;;;2.25;1.63;;;;;;;;;;5038973;28;20379;-80
2024/02/04 04:53:31;;;;;;;1.90;1.60;;;;;;;;;;5038838;28;20389;-80
2024/02/04 04:55:57;;;;;;;2.20;1.57;;;;;;;;;;5038423;28;20399;-80
2024/02/04 04:58:23;;;;;;;1.70;1.60;;;;;;;;;;5038898;28;20406;-80
2024/02/04 05:00:49;;;;;;;1.93;1.70;;;;;;;;;;5038784;28;20477;-80
2024/02/04 05:03:15;;;;;;;1.98;1.88;;;;;;;;;;5038349;28;20411;-80
2024/02/04 05:05:41;;;;;;;1.95;1.60;;;;;;;;;;5037024;28;20383;-80
2024/02/04 05:08:07;;;;;;;2.45;1.50;;;;;;;;;;5038016;28;20425;-80
2024/02/04 05:10:33;;;;;;;1.50;1.40;;;;;;;;;;5038694;28;20419;-80
2024/02/04 05:12:59;;;;;;;1.50;1.40;;;;;;;;;;5038000;28;20410;-80
2024/02/04 05:15:25;;;;;;;1.50;1.40;;;;;;;;;;5038268;28;20383;-80
2024/02/04 05:17:51;;;;;;;1.40;1.30;;;;;;;;;;5037907;28;20437;-80
2024/02/04 05:20:17;;;;;;;1.40;1.30;;;;;;;;;;5037586;28;20792;-79
2024/02/04 05:22:43;;;;;;;1.27;1.17;;;;;;;;;;5038057;28;20850;-80
2024/02/04 05:25:09;;;;;;;3.77;1.20;;;;;;;;;;5038074;28;20391;-80
2024/02/04 05:27:36;;;;;;;2.58;1.10;;;;;;;;;;5038170;28;20386;-79
2024/02/04 05:30:03;;;;;;;1.63;1.20;;;;;;;;;;5036990;28;21031;-80
2024/02/04 05:32:29;;;;;;;1.77;1.00;;;;;;;;;;5036599;28;20379;-80
2024/02/04 05:34:54;;;;;;;1.90;0.80;;;;;;;;;;5037244;28;20460;-79
2024/02/04 05:37:21;;;;;;;0.90;0.80;;;;;;;;;;5036514;28;20402;-80
2024/02/04 05:39:47;;;;;;;0.90;0.80;;;;;;;;;;5037021;28;20398;-80
2024/02/04 05:42:13;;;;;;;1.98;1.00;;;;;;;;;;5036775;28;20391;-80
2024/02/04 05:44:39;;;;;;;1.10;0.80;;;;;;;;;;5037309;28;20406;-80
2024/02/04 05:47:05;;;;;;;0.70;0.70;;;;;;;;;;5036514;28;20394;-80
2024/02/04 05:49:31;;;;;;;1.38;0.90;;;;;;;;;;5036872;28;20403;-80
2024/02/04 05:51:57;;;;;;;0.80;0.70;;;;;;;;;;5036110;28;20444;-80
2024/02/04 05:54:23;;;;;;;2.40;0.63;;;;;;;;;;5037209;28;20387;-80
2024/02/04 05:56:49;;;;;;;0.88;0.70;;;;;;;;;;5036544;28;20394;-80
2024/02/04 05:59:16;;;;;;;0.77;0.60;;;;;;;;;;5016633;28;20391;-80
2024/02/04 06:01:42;;;;;;;1.40;0.70;;;;;;;;;;5018398;28;20468;-80
2024/02/04 06:04:08;;;;;;;1.35;0.70;;;;;;;;;;5017354;28;20408;-80
2024/02/04 06:06:35;;;;;;;1.90;0.82;;;;;;;;;;5017383;28;20388;-80
2024/02/04 06:09:01;;;;;;;0.70;0.70;;;;;;;;;;5016801;28;20416;-80
2024/02/04 06:11:27;;;;;;;1.80;0.77;;;;;;;;;;5016275;28;20798;-80
2024/02/04 06:13:53;;;;;;;1.40;0.60;;;;;;;;;;5016539;28;20385;-80
2024/02/04 06:16:19;;;;;;;0.50;0.50;;;;;;;;;;5016534;28;20468;-80
2024/02/04 06:18:45;;;;;;;1.33;0.70;;;;;;;;;;5016446;28;20409;-80
2024/02/04 06:21:11;;;;;;;0.50;0.50;;;;;;;;;;5016994;28;20377;-80
2024/02/04 06:23:39;;;;;;;0.80;0.45;;;;;;;;;;5017135;28;20394;-80
2024/02/04 06:26:05;;;;;;;0.82;0.60;;;;;;;;;;5016574;28;20381;-80
2024/02/04 06:28:31;;;;;;;0.57;0.43;;;;;;;;;;5016693;28;20377;-80
2024/02/04 06:30:57;;;;;;;0.47;0.47;;;;;;;;;;5016078;28;20440;-80
2024/02/04 06:33:24;;;;;;;0.57;0.40;;;;;;;;;;5017985;28;20553;-80
2024/02/04 06:35:50;;;;;;;0.43;0.40;;;;;;;;;;5017787;28;20407;-80
2024/02/04 06:38:16;;;;;;;0.50;0.40;;;;;;;;;;5018135;28;20433;-80
2024/02/04 06:40:42;;;;;;;0.68;0.32;;;;;;;;;;5020357;28;20893;-80
2024/02/04 06:43:08;;;;;;;0.40;0.40;;;;;;;;;;5034462;28;20395;-80
2024/02/04 06:45:34;;;;;;;0.43;0.40;;;;;;;;;;5037078;28;20379;-80
2024/02/04 06:48:00;;;;;;;0.40;0.30;;;;;;;;;;5036451;28;20414;-80
2024/02/04 06:50:26;;;;;;;0.83;0.43;;;;;;;;;;5036287;28;20411;-80
2024/02/04 06:52:52;;;;;;;0.80;0.30;;;;;;;;;;5035243;28;20433;-80
2024/02/04 06:55:18;;;;;;;1.27;0.40;;;;;;;;;;5036007;28;20741;-80
2024/02/04 06:57:44;;;;;;;0.75;0.40;;;;;;;;;;5035947;28;20371;-80
2024/02/04 07:00:11;;;;;;;1.02;0.20;;;;;;;;;;5036328;28;20861;-80
2024/02/04 07:02:37;;;;;;;0.40;0.20;;;;;;;;;;5036168;28;20389;-80
2024/02/04 07:05:04;;;;;;;0.32;0.30;;;;;;;;;;5036064;28;20446;-80
2024/02/04 07:07:30;;;;;;;0.70;0.30;;;;;;;;;;5035581;28;20387;-80
2024/02/04 07:09:57;;;;;;;1.75;0.40;;;;;;;;;;5038029;28;20407;-80
2024/02/04 07:12:23;;;;;;;0.80;0.50;;;;;;;;;;5039122;28;20382;-80
2024/02/04 07:14:48;;;;;;;1.07;0.40;;;;;;;;;;5039287;28;20781;-80
2024/02/04 07:17:14;;;;;;;0.77;0.40;;;;;;;;;;5040368;28;20387;-80
2024/02/04 07:19:41;;;;;;;0.40;0.40;;;;;;;;;;5040931;28;20390;-80
2024/02/04 07:22:07;;;;;;;0.40;0.30;;;;;;;;;;5039980;28;20410;-80
2024/02/04 07:24:33;;;;;;;0.70;0.40;;;;;;;;;;5040236;28;20489;-80
2024/02/04 07:26:59;;;;;;;0.43;0.40;;;;;;;;;;5040095;28;20864;-80
2024/02/04 07:29:25;;;;;;;0.47;0.38;;;;;;;;;;5039182;28;20476;-80
2024/02/04 07:31:51;;;;;;;1.50;0.40;;;;;;;;;;5039120;28;20449;-81
2024/02/04 07:34:17;;;;;;;0.55;0.47;;;;;;;;;;5038948;28;20379;-81
2024/02/04 07:36:44;;;;;;;0.43;0.35;;;;;;;;;;5040389;28;20383;-81
2024/02/04 07:39:10;;;;;;;0.80;0.80;;;;;;;;;;5042615;28;20387;-80
2024/02/04 07:41:36;;;;;;;1.05;0.40;;;;;;;;;;5041532;28;20385;-80
2024/02/04 07:44:02;;;;;;;1.27;0.40;;;;;;;;;;5040105;28;20445;-80
2024/02/04 07:46:28;;;;;;;0.93;0.40;;;;;;;;;;5041135;28;20433;-81
2024/02/04 07:48:54;;;;;;;0.70;0.43;;;;;;;;;;5039501;28;20407;-81
2024/02/04 07:51:21;;;;;;;0.90;0.30;;;;;;;;;;5038743;28;20735;-81
2024/02/04 07:53:47;;;;;;;1.13;0.40;;;;;;;;;;5039919;28;20457;-80
2024/02/04 07:56:13;;;;;;;0.73;0.40;;;;;;;;;;5039190;28;20387;-79
2024/02/04 07:58:39;;;;;;;0.82;0.60;;;;;;;;;;5039932;28;20796;-80
2024/02/04 08:01:05;;;;;;;0.60;0.30;;;;;;;;;;5039110;28;20383;-79
2024/02/04 08:03:31;;;;;;;1.45;0.70;;;;;;;;;;5037537;28;20473;-79
2024/02/04 08:05:57;;;;;;;0.60;0.40;;;;;;;;;;5039735;28;20834;-79
2024/02/04 08:08:23;;;;;;;1.40;0.60;;;;;;;;;;5038928;28;20480;-79
2024/02/04 08:10:49;;;;;;;1.60;0.90;;;;;;;;;;5038892;28;20422;-80
2024/02/04 08:13:15;;;;;;;1.17;0.68;;;;;;;;;;5038227;28;20383;-80
2024/02/04 08:15:41;;;;;;;1.05;0.60;;;;;;;;;;5038414;28;20375;-79
2024/02/04 08:18:07;;;;;;;0.95;0.50;;;;;;;;;;5040328;28;20430;-81
2024/02/04 08:20:33;;;;;;;1.37;0.40;;;;;;;;;;5039937;28;20512;-80
2024/02/04 08:22:59;;;;;;;0.55;0.40;;;;;;;;;;5039691;28;20386;-79
2024/02/04 08:25:25;;;;;;;1.55;0.40;;;;;;;;;;5039590;28;20379;-80
2024/02/04 08:27:51;;;;;;;0.50;0.40;;;;;;;;;;5040254;28;20470;-80
2024/02/04 08:30:18;;;;;;;1.00;0.50;;;;;;;;;;5039933;28;20947;-80
2024/02/04 08:32:45;;;;;;;0.88;0.50;;;;;;;;;;5040156;28;20401;-80
2024/02/04 08:35:11;;;;;;;0.47;0.30;;;;;;;;;;5039434;28;21083;-80
2024/02/04 08:37:37;;;;;;;0.60;0.40;;;;;;;;;;5040574;28;20394;-80
2024/02/04 08:40:04;;;;;;;0.90;0.43;;;;;;;;;;5040267;28;20383;-80
2024/02/04 08:42:30;;;;;;;0.60;0.40;;;;;;;;;;5038998;28;20953;-80
2024/02/04 08:44:56;;;;;;;0.70;0.40;;;;;;;;;;5039314;28;20387;-80
2024/02/04 08:47:22;;;;;;;0.47;0.40;;;;;;;;;;5039461;28;20379;-80
2024/02/04 08:49:48;;;;;;;0.60;0.40;;;;;;;;;;5038628;28;20761;-80
2024/02/04 08:52:14;;;;;;;1.02;0.47;;;;;;;;;;5039526;28;20437;-80
2024/02/04 08:54:40;;;;;;;0.57;0.40;;;;;;;;;;5039619;28;20721;-80
2024/02/04 08:57:06;;;;;;;0.60;0.45;;;;;;;;;;5039711;28;20715;-80
2024/02/04 08:59:32;;;;;;;0.60;0.50;;;;;;;;;;5039844;28;20458;-81
2024/02/04 09:01:58;;;;;;;0.50;0.50;;;;;;;;;;5037925;28;20383;-81
2024/02/04 09:04:24;;;;;;;0.50;0.40;;;;;;;;;;5038202;28;20431;-81
2024/02/04 09:06:50;;;;;;;0.40;0.40;;;;;;;;;;5037694;28;20405;-81
2024/02/04 09:09:16;;;;;;;0.90;0.50;;;;;;;;;;5040438;28;20483;-79
2024/02/04 09:11:42;;;;;;;1.50;1.00;;;;;;;;;;5043308;28;20384;-81
2024/02/04 09:14:08;;;;;;;0.47;0.40;;;;;;;;;;5040206;28;20786;-81
2024/02/04 09:16:34;;;;;;;0.50;0.40;;;;;;;;;;5041313;28;20422;-80
2024/02/04 09:19:00;;;;;;;1.60;0.50;;;;;;;;;;5043563;28;20379;-81
2024/02/04 09:21:26;;;;;;;0.63;0.50;;;;;;;;;;5041952;28;20379;-81
2024/02/04 09:23:53;;;;;;;0.50;0.50;;;;;;;;;;5041178;28;20402;-82
2024/02/04 09:26:19;;;;;;;1.55;0.47;;;;;;;;;;5040889;28;20376;-81
2024/02/04 09:28:45;;;;;;;1.10;0.50;;;;;;;;;;5043218;28;20433;-81
2024/02/04 09:31:11;;;;;;;0.63;0.50;;;;;;;;;;5040669;28;20840;-81
2024/02/04 09:33:37;;;;;;;0.57;0.50;;;;;;;;;;5041018;28;20521;-81
2024/02/04 09:36:04;;;;;;;0.73;0.52;;;;;;;;;;5036865;28;20410;-80
2024/02/04 09:38:30;;;;;;;1.00;0.70;;;;;;;;;;5040635;28;20459;-81
2024/02/04 09:40:56;;;;;;;1.42;0.65;;;;;;;;;;5042846;28;20415;-80
2024/02/04 09:43:22;;;;;;;0.55;0.55;;;;;;;;;;5040854;28;20387;-80
2024/02/04 09:45:49;;;;;;;0.90;0.80;;;;;;;;;;5038284;28;20391;-81
2024/02/04 09:48:20;;;;;;;0.85;0.60;;;;;;;;;;5040382;28;20386;-81
2024/02/04 09:50:46;;;;;;;1.50;1.30;;;;;;;;;;5040191;28;20407;-80
2024/02/04 09:53:15;;;;;;;1.77;1.02;;;;;;;;;;5040305;28;20472;-81
2024/02/04 09:55:41;;;;;;;1.92;0.90;;;;;;;;;;5041795;28;20375;-80
2024/02/04 09:58:07;;;;;;;1.43;0.80;;;;;;;;;;5041033;28;20857;-81
2024/02/04 10:00:34;;;;;;;0.90;0.50;;;;;;;;;;5041690;28;20449;-80
2024/02/04 10:03:01;;;;;;;0.50;0.40;;;;;;;;;;5041119;28;20430;-80
2024/02/04 10:05:27;;;;;;;0.25;0.25;;;;;;;;;;5040943;28;20394;-81
2024/02/04 10:07:53;;;;;;;0.75;0.30;;;;;;;;;;5023828;28;20425;-80
2024/02/04 10:10:19;;;;;;;0.43;0.32;;;;;;;;;;5041405;28;20449;-81
2024/02/04 10:12:45;;;;;;;0.73;0.33;;;;;;;;;;5041713;28;20432;-80
2024/02/04 10:15:13;;;;;;;1.77;0.25;;;;;;;;;;5041196;28;20379;-81
2024/02/04 10:17:42;;;;;;;0.82;0.35;;;;;;;;;;5041146;28;20379;-81
2024/02/04 10:20:10;;;;;;;0.95;0.30;;;;;;;;;;5040513;28;21172;-81
2024/02/04 10:22:36;;;;;;;1.48;0.40;;;;;;;;;;5040915;28;20394;-81
2024/02/04 10:25:06;;;;;;;0.22;0.20;;;;;;;;;;5040795;28;20418;-81
2024/02/04 10:27:32;;;;;;;0.70;0.30;;;;;;;;;;5038988;28;20471;-80
2024/02/04 10:29:58;;;;;;;0.20;0.20;;;;;;;;;;5031790;28;20434;-81
2024/02/04 10:32:24;;;;;;;0.93;0.40;;;;;;;;;;5039944;28;20857;-81
2024/02/04 10:34:50;;;;;;;0.88;0.40;;;;;;;;;;5022291;28;20449;-81
2024/02/04 10:37:16;;;;;;;0.80;0.40;;;;;;;;;;5040558;28;20407;-80
2024/02/04 10:39:42;;;;;;;0.40;0.20;;;;;;;;;;5040226;28;20880;-81
2024/02/04 10:42:08;;;;;;;0.45;0.20;;;;;;;;;;5040250;28;20394;-81
2024/02/04 10:44:39;;;;;;;0.52;0.20;;;;;;;;;;5043422;28;20394;-81
2024/02/04 10:47:06;;;;;;;0.68;0.30;;;;;;;;;;5046504;28;20378;-80
2024/02/04 10:49:34;;;;;;;0.57;0.30;;;;;;;;;;5046512;28;20434;-80
2024/02/04 10:52:00;;;;;;;0.50;0.30;;;;;;;;;;5046000;28;20379;-80
2024/02/04 10:54:27;;;;;;;1.10;0.50;;;;;;;;;;5046159;28;20409;-80
2024/02/04 10:56:57;;;;;;;1.50;0.70;;;;;;;;;;5045118;28;20389;-80
2024/02/04 10:59:23;;;;;;;0.60;0.43;;;;;;;;;;5044302;28;20440;-81
2024/02/04 11:01:49;;;;;;;0.60;0.40;;;;;;;;;;5045465;28;20394;-81
2024/02/04 11:04:16;;;;;;;0.98;0.32;;;;;;;;;;5045844;28;20431;-80
2024/02/04 11:06:45;;;;;;;1.55;0.50;;;;;;;;;;5045413;28;20410;-82
2024/02/04 11:09:12;;;;;;;0.90;0.30;;;;;;;;;;5045738;28;20402;-80
2024/02/04 11:11:39;;;;;;;1.15;0.55;;;;;;;;;;5045800;28;20930;-81
2024/02/04 11:14:09;;;;;;;0.22;0.20;;;;;;;;;;5045693;28;20444;-81
2024/02/04 11:16:44;;;;;;;1.52;0.55;;;;;;;;;;5044666;28;20379;-81
2024/02/04 11:19:16;;;;;;;0.60;0.30;;;;;;;;;;5044749;28;20374;-83
2024/02/04 11:21:42;;;;;;;0.40;0.20;;;;;;;;;;5045546;28;20795;-81
2024/02/04 11:24:27;;;;;;;0.70;0.30;;;;;;;;;;5044745;28;20403;-82
2024/02/04 11:26:53;;;;;;;0.70;0.40;;;;;;;;;;5042897;28;20462;-82
2024/02/04 11:29:19;;;;;;;0.88;0.38;;;;;;;;;;5045448;28;20410;-80
2024/02/04 11:31:45;;;;;;;0.90;0.30;;;;;;;;;;5044625;28;20387;-81
2024/02/04 11:34:11;;;;;;;0.40;0.20;;;;;;;;;;5045083;28;20440;-80
2024/02/04 11:36:41;;;;;;;1.48;0.20;;;;;;;;;;5043605;28;20932;-80
2024/02/04 11:39:17;;;;;;;1.05;0.60;;;;;;;;;;5045799;28;20916;-82
2024/02/04 11:41:49;;;;;;;0.40;0.30;;;;;;;;;;5043804;28;20444;-82
2024/02/04 11:44:25;;;;;;;0.65;0.38;;;;;;;;;;5042594;28;20467;-82
2024/02/04 11:46:51;;;;;;;0.53;0.40;;;;;;;;;;5044214;28;20869;-82
2024/02/04 11:49:21;;;;;;;0.60;0.30;;;;;;;;;;5043219;28;20478;-82
2024/02/04 11:51:48;;;;;;;0.30;0.20;;;;;;;;;;5043493;28;20390;-82
2024/02/04 11:54:15;;;;;;;0.35;0.30;;;;;;;;;;5042715;28;20381;-82
2024/02/04 11:56:41;;;;;;;0.40;0.30;;;;;;;;;;5038611;28;20919;-82
2024/02/04 11:59:08;;;;;;;0.40;0.30;;;;;;;;;;5020061;28;20396;-82
2024/02/04 12:01:35;;;;;;;0.40;0.40;;;;;;;;;;5031192;28;20386;-82
2024/02/04 12:04:11;;;;;;;0.40;0.40;;;;;;;;;;5040349;28;20484;-82
2024/02/04 12:06:38;;;;;;;0.43;0.30;;;;;;;;;;5039834;28;20386;-82
2024/02/04 12:09:06;;;;;;;0.50;0.50;;;;;;;;;;5040216;28;20386;-82
2024/02/04 12:11:32;;;;;;;0.30;0.30;;;;;;;;;;5041909;28;20379;-81
2024/02/04 12:14:01;;;;;;;0.40;0.40;;;;;;;;;;5042709;28;20535;-81
2024/02/04 12:16:28;;;;;;;1.13;0.40;;;;;;;;;;5041812;28;20382;-81
2024/02/04 12:18:54;;;;;;;0.75;0.40;;;;;;;;;;5039885;28;20379;-81
2024/02/04 12:21:20;;;;;;;0.60;0.50;;;;;;;;;;5040923;28;20434;-82
2024/02/04 12:23:47;;;;;;;0.90;0.60;;;;;;;;;;5040077;28;20379;-82
2024/02/04 12:26:14;;;;;;;0.32;0.30;;;;;;;;;;5041002;28;20436;-81
2024/02/04 12:28:40;;;;;;;1.30;0.50;;;;;;;;;;5040418;28;20857;-81
2024/02/04 12:31:06;;;;;;;0.63;0.50;;;;;;;;;;5041751;28;20418;-80
2024/02/04 12:33:32;;;;;;;0.50;0.40;;;;;;;;;;5040923;28;20465;-82
2024/02/04 12:36:00;;;;;;;0.55;0.55;;;;;;;;;;5039860;28;20427;-81
2024/02/04 12:38:26;;;;;;;0.77;0.52;;;;;;;;;;5039777;28;20434;-81
2024/02/04 12:40:52;;;;;;;0.40;0.40;;;;;;;;;;5039876;28;20384;-80
2024/02/04 12:43:18;;;;;;;0.32;0.30;;;;;;;;;;5040275;28;20383;-81
2024/02/04 12:45:44;;;;;;;0.60;0.40;;;;;;;;;;5038306;28;20387;-82
2024/02/04 12:48:10;;;;;;;0.60;0.50;;;;;;;;;;5039521;28;20418;-82
2024/02/04 12:50:39;;;;;;;0.50;0.50;;;;;;;;;;5040021;28;20429;-82
2024/02/04 12:53:11;;;;;;;0.85;0.57;;;;;;;;;;5038582;28;20410;-82
2024/02/04 12:55:38;;;;;;;0.70;0.63;;;;;;;;;;5039228;28;20383;-82
2024/02/04 12:58:05;;;;;;;1.00;0.63;;;;;;;;;;5038069;28;20386;-82
2024/02/04 13:00:32;;;;;;;1.20;0.80;;;;;;;;;;5038017;28;20407;-82
2024/02/04 13:02:59;;;;;;;1.33;0.70;;;;;;;;;;5037222;28;20868;-82
2024/02/04 13:05:25;;;;;;;1.23;0.80;;;;;;;;;;5039052;28;20395;-82
2024/02/04 13:07:55;;;;;;;1.37;0.60;;;;;;;;;;5040045;28;20379;-80
2024/02/04 13:10:22;;;;;;;0.90;0.80;;;;;;;;;;5041656;28;20414;-80
2024/02/04 13:12:58;;;;;;;1.00;0.70;;;;;;;;;;5041418;28;20722;-80
2024/02/04 13:15:24;;;;;;;1.30;0.70;;;;;;;;;;5041702;28;20394;-80
2024/02/04 13:17:50;;;;;;;1.95;0.85;;;;;;;;;;5041812;28;20418;-80
2024/02/04 13:20:16;;;;;;;1.25;1.10;;;;;;;;;;5040527;28;20721;-82
2024/02/04 13:22:42;;;;;;;1.13;0.90;;;;;;;;;;5040188;28;20383;-82
2024/02/04 13:25:08;;;;;;;1.23;0.85;;;;;;;;;;5039891;28;20399;-82
2024/02/04 13:27:34;;;;;;;1.38;0.85;;;;;;;;;;5040341;28;20414;-80
2024/02/04 13:30:00;;;;;;;1.45;1.00;;;;;;;;;;5041244;28;20411;-80
2024/02/04 13:32:26;;;;;;;1.70;1.30;;;;;;;;;;5041349;28;20474;-80
2024/02/04 13:34:52;;;;;;;1.83;1.20;;;;;;;;;;5042594;28;20383;-83
2024/02/04 13:37:18;;;;;;;2.17;1.35;;;;;;;;;;5041936;28;20387;-81
2024/02/04 13:39:44;;;;;;;1.35;1.13;;;;;;;;;;5041429;28;20387;-81
2024/02/04 13:42:10;;;;;;;2.05;1.00;;;;;;;;;;5041863;28;20387;-81
2024/02/04 13:44:36;;;;;;;1.90;0.70;;;;;;;;;;5042181;28;20481;-82
2024/02/04 13:47:02;;;;;;;2.42;1.10;;;;;;;;;;5040749;28;20433;-81
2024/02/04 13:49:28;;;;;;;4.00;1.35;;;;;;;;;;5040376;28;20428;-81
2024/02/04 13:51:54;;;;;;;2.77;1.00;;;;;;;;;;5040781;28;20733;-81
2024/02/04 13:54:20;;;;;;;1.55;0.93;;;;;;;;;;5041097;28;20387;-81
2024/02/04 13:56:46;;;;;;;2.70;1.20;;;;;;;;;;5041739;28;20749;-81
2024/02/04 13:59:12;;;;;;;1.95;0.98;;;;;;;;;;5041277;28;20387;-81
2024/02/04 14:01:38;;;;;;;1.45;1.08;;;;;;;;;;5041224;28;20417;-81
2024/02/04 14:04:04;;;;;;;3.38;1.20;;;;;;;;;;5040020;28;20411;-81
2024/02/04 14:06:30;;;;;;;1.70;1.00;;;;;;;;;;5038493;28;20446;-81
2024/02/04 14:08:56;;;;;;;2.27;1.20;;;;;;;;;;5040101;28;20383;-81
2024/02/04 14:11:22;;;;;;;2.58;1.20;;;;;;;;;;5039311;28;21136;-81
2024/02/04 14:13:48;;;;;;;1.40;0.98;;;;;;;;;;5040187;28;20391;-81
2024/02/04 14:16:14;;;;;;;3.03;1.23;;;;;;;;;;5039168;28;20449;-81
2024/02/04 14:18:45;;;;;;;1.08;0.90;;;;;;;;;;5039069;28;20421;-80
2024/02/04 14:21:13;;;;;;;2.17;1.00;;;;;;;;;;5040047;28;20401;-80
2024/02/04 14:23:39;;;;;;;2.37;0.93;;;;;;;;;;5039344;28;20895;-80
2024/02/04 14:26:07;;;;;;;2.20;1.02;;;;;;;;;;5038984;28;20442;-82
2024/02/04 14:28:40;;;;;;;1.55;0.90;;;;;;;;;;5039348;28;20853;-82
2024/02/04 14:31:07;;;;;;;1.60;0.90;;;;;;;;;;5038823;28;20446;-83
2024/02/04 14:33:33;;;;;;;1.83;0.90;;;;;;;;;;5039407;28;20418;-82
2024/02/04 14:36:00;;;;;;;1.52;1.00;;;;;;;;;;5038970;28;20521;-81
2024/02/04 14:38:26;;;;;;;3.22;1.13;;;;;;;;;;5038491;28;20390;-81